createdAt,value
2022-10-17T00:00:43.071Z,16.30
2022-10-17T00:04:44.284Z,16.30
2022-10-17T00:08:45.466Z,16.40
2022-10-17T00:12:46.643Z,16.30
2022-10-17T00:16:47.861Z,16.30
2022-10-17T00:20:49.869Z,16.40
2022-10-17T00:24:51.351Z,16.30
2022-10-17T00:28:53.201Z,16.30
2022-10-17T00:32:54.535Z,16.20
2022-10-17T00:36:55.961Z,16.00
2022-10-17T00:40:57.271Z,16.10
2022-10-17T00:45:11.488Z,16.10
2022-10-17T00:49:12.796Z,15.90
2022-10-17T00:53:14.909Z,16.00
2022-10-17T00:57:16.892Z,16.00
2022-10-17T01:01:18.073Z,16.00
2022-10-17T01:05:20.064Z,15.90
2022-10-17T01:09:21.672Z,15.90
2022-10-17T01:13:26.660Z,15.90
2022-10-17T01:18:05.564Z,15.90
2022-10-17T01:22:10.572Z,15.90
2022-10-17T01:26:36.833Z,15.90
2022-10-17T01:30:54.182Z,15.70
2022-10-17T01:34:59.111Z,15.60
2022-10-17T01:39:07.134Z,15.60
2022-10-17T01:43:15.022Z,15.60
2022-10-17T01:47:22.901Z,15.60
2022-10-17T01:51:27.903Z,15.60
2022-10-17T01:55:39.336Z,15.60
2022-10-17T01:59:44.347Z,15.70
2022-10-17T02:03:48.629Z,15.80
2022-10-17T02:07:49.819Z,15.70
2022-10-17T02:12:01.012Z,15.70
2022-10-17T02:16:28.768Z,15.70
2022-10-17T02:20:58.326Z,15.60
2022-10-17T02:25:09.429Z,15.60
2022-10-17T02:29:19.874Z,15.70
2022-10-17T02:33:46.044Z,15.80
2022-10-17T02:37:48.413Z,15.70
2022-10-17T02:41:51.720Z,15.70
2022-10-17T02:45:53.501Z,15.60
2022-10-17T02:49:57.786Z,15.60
2022-10-17T02:54:05.638Z,15.70
2022-10-17T02:58:10.233Z,15.70
2022-10-17T03:02:11.505Z,15.70
2022-10-17T03:06:12.806Z,15.80
2022-10-17T03:10:14.177Z,15.70
2022-10-17T03:14:15.263Z,15.60
2022-10-17T03:18:16.462Z,15.70
2022-10-17T03:22:17.656Z,15.60
2022-10-17T03:26:18.962Z,15.60
2022-10-17T03:30:20.562Z,15.60
2022-10-17T03:34:22.349Z,15.50
2022-10-17T03:38:23.566Z,15.50
2022-10-17T03:42:24.742Z,15.40
2022-10-17T03:46:25.946Z,15.40
2022-10-17T03:50:27.146Z,15.50
2022-10-17T03:54:28.600Z,15.60
2022-10-17T03:58:30.085Z,15.50
2022-10-17T04:02:31.152Z,15.60
2022-10-17T04:06:32.539Z,15.60
2022-10-17T04:10:33.637Z,15.60
2022-10-17T04:14:36.272Z,15.50
2022-10-17T04:18:37.457Z,15.40
2022-10-17T04:22:38.547Z,15.30
2022-10-17T04:26:39.622Z,15.40
2022-10-17T04:30:43.590Z,15.40
2022-10-17T04:34:43.700Z,15.40
2022-10-17T04:38:45.231Z,15.20
2022-10-17T04:42:46.899Z,15.40
2022-10-17T04:46:48.100Z,15.20
2022-10-17T04:50:55.093Z,15.20
2022-10-17T04:54:56.204Z,15.30
2022-10-17T04:58:58.763Z,15.30
2022-10-17T05:02:59.968Z,15.20
2022-10-17T05:07:01.157Z,15.20
2022-10-17T05:11:02.907Z,15.20
2022-10-17T05:15:05.293Z,15.10
2022-10-17T05:19:06.388Z,15.00
2022-10-17T05:23:07.628Z,15.10
2022-10-17T05:27:08.811Z,15.10
2022-10-17T05:31:10.918Z,15.20
2022-10-17T05:35:12.083Z,15.20
2022-10-17T05:39:14.209Z,15.30
2022-10-17T05:43:15.842Z,15.20
2022-10-17T05:47:17.006Z,15.30
2022-10-17T05:51:18.384Z,15.30
2022-10-17T05:55:19.830Z,15.30
2022-10-17T05:59:21.647Z,15.30
2022-10-17T06:03:22.817Z,15.30
2022-10-17T06:07:23.915Z,15.30
2022-10-17T06:11:25.024Z,15.20
2022-10-17T06:15:26.235Z,15.20
2022-10-17T06:19:27.418Z,15.10
2022-10-17T06:23:28.518Z,15.10
2022-10-17T06:27:29.814Z,15.10
2022-10-17T06:31:30.992Z,15.30
2022-10-17T06:35:32.201Z,15.40
2022-10-17T06:39:35.226Z,15.40
2022-10-17T06:43:37.510Z,15.50
2022-10-17T06:47:39.106Z,15.60
2022-10-17T06:51:40.299Z,15.60
2022-10-17T06:55:42.306Z,15.70
2022-10-17T06:59:43.654Z,15.70
2022-10-17T07:03:47.675Z,16.00
2022-10-17T07:07:51.056Z,16.10
2022-10-17T07:11:51.988Z,16.30
2022-10-17T07:15:55.089Z,16.40
2022-10-17T07:19:56.453Z,16.50
2022-10-17T07:23:57.793Z,17.00
2022-10-17T07:27:58.969Z,17.50
2022-10-17T07:32:00.090Z,17.80
2022-10-17T07:36:02.298Z,18.20
2022-10-17T07:40:05.663Z,18.60
2022-10-17T07:44:06.847Z,19.00
2022-10-17T07:48:08.011Z,19.50
2022-10-17T07:52:14.716Z,19.90
2022-10-17T07:56:16.322Z,20.10
2022-10-17T08:00:17.738Z,20.50
2022-10-17T08:04:18.819Z,21.00
2022-10-17T08:08:19.944Z,21.40
2022-10-17T08:12:21.439Z,21.60
2022-10-17T08:16:22.635Z,21.90
2022-10-17T08:20:23.819Z,22.10
2022-10-17T08:24:25.238Z,22.60
2022-10-17T08:28:26.474Z,22.70
2022-10-17T08:32:29.678Z,22.70
2022-10-17T08:36:31.233Z,22.70
2022-10-17T08:40:35.781Z,22.50
2022-10-17T08:44:50.015Z,22.40
2022-10-17T08:48:51.713Z,22.50
2022-10-17T08:53:11.450Z,22.70
2022-10-17T08:57:14.752Z,22.70
2022-10-17T09:01:38.292Z,22.60
2022-10-17T09:05:55.647Z,22.40
2022-10-17T09:10:04.015Z,22.60
2022-10-17T09:14:28.936Z,22.70
2022-10-17T09:18:33.328Z,22.70
2022-10-17T09:22:47.545Z,23.00
2022-10-17T09:26:50.700Z,23.10
2022-10-17T09:31:04.722Z,23.30
2022-10-17T09:35:12.820Z,23.20
2022-10-17T09:39:17.890Z,23.10
2022-10-17T09:43:19.285Z,23.50
2022-10-17T09:47:37.496Z,23.80
2022-10-17T09:51:39.851Z,24.20
2022-10-17T09:55:44.453Z,24.20
2022-10-17T09:59:49.462Z,24.10
2022-10-17T10:04:14.094Z,24.50
2022-10-17T10:08:18.194Z,24.10
2022-10-17T10:12:23.297Z,24.20
2022-10-17T10:16:32.426Z,24.50
2022-10-17T10:20:36.606Z,24.90
2022-10-17T10:24:37.711Z,25.20
2022-10-17T10:28:39.323Z,25.30
2022-10-17T10:32:42.392Z,25.40
2022-10-17T10:36:50.569Z,25.50
2022-10-17T10:40:54.961Z,25.50
2022-10-17T10:45:11.952Z,25.50
2022-10-17T10:49:31.489Z,25.50
2022-10-17T10:53:52.866Z,25.60
2022-10-17T10:57:58.171Z,25.80
2022-10-17T11:02:05.924Z,25.80
2022-10-17T11:06:28.787Z,26.00
2022-10-17T11:10:43.858Z,25.80
2022-10-17T11:14:54.964Z,26.10
2022-10-17T11:19:14.709Z,26.00
2022-10-17T11:23:39.616Z,25.80
2022-10-17T11:27:41.211Z,25.90
2022-10-17T11:31:46.186Z,25.60
2022-10-17T11:35:51.080Z,25.80
2022-10-17T11:40:01.858Z,26.00
2022-10-17T11:44:23.284Z,25.90
2022-10-17T11:48:43.624Z,26.10
2022-10-17T11:52:57.649Z,25.80
2022-10-17T11:57:17.625Z,25.90
2022-10-17T12:01:35.123Z,25.90
2022-10-17T12:05:46.532Z,26.10
2022-10-17T12:10:00.966Z,25.90
2022-10-17T12:14:05.822Z,26.30
2022-10-17T12:18:09.339Z,26.40
2022-10-17T12:22:20.479Z,26.10
2022-10-17T12:26:29.387Z,26.20
2022-10-17T12:30:30.578Z,26.40
2022-10-17T12:34:32.384Z,26.50
2022-10-17T12:38:33.632Z,26.60
2022-10-17T12:42:38.623Z,26.40
2022-10-17T12:47:05.156Z,26.20
2022-10-17T12:55:25.621Z,26.20
2022-10-17T12:59:28.835Z,26.30
2022-10-17T13:03:32.808Z,25.90
2022-10-17T13:07:35.718Z,25.80
2022-10-17T13:11:38.895Z,26.00
2022-10-17T13:15:46.072Z,26.00
2022-10-17T13:19:47.417Z,26.00
2022-10-17T13:23:50.522Z,26.20
2022-10-17T13:27:55.533Z,26.50
2022-10-17T13:32:03.295Z,26.60
2022-10-17T13:36:07.892Z,26.40
2022-10-17T13:40:40.901Z,25.80
2022-10-17T13:44:23.365Z,25.50
2022-10-17T13:48:27.798Z,25.90
2022-10-17T13:52:29.868Z,26.00
2022-10-17T13:56:31.279Z,26.10
2022-10-17T14:00:32.944Z,25.80
2022-10-17T14:04:56.584Z,25.70
2022-10-17T14:08:39.394Z,26.00
2022-10-17T14:12:42.991Z,25.80
2022-10-17T14:16:44.604Z,25.80
2022-10-17T14:21:30.390Z,25.60
2022-10-17T14:24:54.202Z,25.50
2022-10-17T14:29:05.192Z,25.60
2022-10-17T14:33:16.328Z,25.60
2022-10-17T14:37:33.192Z,25.50
2022-10-17T14:41:42.917Z,25.40
2022-10-17T14:45:40.990Z,25.20
2022-10-17T14:49:42.531Z,24.80
2022-10-17T14:54:05.238Z,25.00
2022-10-17T14:58:24.273Z,24.80
2022-10-17T15:02:27.980Z,24.90
2022-10-17T15:06:33.087Z,25.20
2022-10-17T15:10:36.413Z,25.20
2022-10-17T15:14:37.675Z,25.30
2022-10-17T15:18:38.878Z,25.30
2022-10-17T15:22:40.162Z,25.20
2022-10-17T15:26:41.432Z,25.00
2022-10-17T15:30:42.641Z,24.80
2022-10-17T15:34:44.247Z,24.70
2022-10-17T15:38:45.436Z,24.60
2022-10-17T15:42:47.874Z,24.60
2022-10-17T15:46:48.964Z,24.70
2022-10-17T15:50:50.182Z,24.60
2022-10-17T15:54:51.960Z,24.30
2022-10-17T15:58:53.485Z,24.20
2022-10-17T16:02:54.783Z,24.20
2022-10-17T16:06:55.966Z,24.10
2022-10-17T16:10:57.155Z,23.90
2022-10-17T16:14:58.636Z,23.80
2022-10-17T16:19:00.739Z,23.90
2022-10-17T16:23:03.612Z,23.80
2022-10-17T16:27:04.714Z,23.70
2022-10-17T16:31:09.708Z,23.60
2022-10-17T16:35:16.672Z,23.20
2022-10-17T16:39:17.899Z,23.10
2022-10-17T16:43:19.191Z,23.00
2022-10-17T16:47:20.295Z,22.90
2022-10-17T16:51:22.300Z,22.90
2022-10-17T16:55:23.468Z,23.00
2022-10-17T16:59:25.108Z,22.90
2022-10-17T17:03:26.491Z,22.80
2022-10-17T17:07:29.029Z,22.60
2022-10-17T17:11:31.727Z,22.50
2022-10-17T17:15:32.842Z,22.30
2022-10-17T17:19:34.011Z,22.20
2022-10-17T17:23:37.303Z,22.00
2022-10-17T17:27:38.507Z,21.80
2022-10-17T17:31:39.603Z,21.80
2022-10-17T17:35:40.701Z,21.80
2022-10-17T17:39:42.306Z,21.70
2022-10-17T17:43:45.408Z,21.70
2022-10-17T17:47:46.505Z,21.70
2022-10-17T17:51:47.583Z,21.70
2022-10-17T17:56:00.722Z,21.80
2022-10-17T18:00:02.447Z,21.70
2022-10-17T18:04:06.165Z,21.60
2022-10-17T18:08:07.318Z,21.60
2022-10-17T18:12:08.884Z,21.60
2022-10-17T18:16:14.255Z,21.60
2022-10-17T18:20:15.444Z,21.60
2022-10-17T18:24:16.591Z,21.60
2022-10-17T18:28:18.594Z,21.60
2022-10-17T18:32:20.124Z,21.60
2022-10-17T18:36:22.246Z,21.50
2022-10-17T18:40:23.492Z,21.40
2022-10-17T18:44:24.738Z,21.40
2022-10-17T18:48:25.953Z,21.30
2022-10-17T18:52:27.119Z,21.40
2022-10-17T18:56:29.457Z,21.40
2022-10-17T19:00:30.813Z,21.30
2022-10-17T19:04:31.963Z,21.20
2022-10-17T19:08:34.265Z,21.20
2022-10-17T19:12:35.464Z,21.20
2022-10-17T19:16:37.354Z,21.10
2022-10-17T19:20:38.649Z,21.10
2022-10-17T19:24:39.830Z,21.10
2022-10-17T19:28:41.413Z,21.20
2022-10-17T19:32:43.566Z,21.10
2022-10-17T19:36:45.371Z,21.00
2022-10-17T19:40:46.617Z,20.90
2022-10-17T19:44:47.830Z,20.80
2022-10-17T19:48:49.921Z,20.80
2022-10-17T19:52:51.562Z,20.80
2022-10-17T19:56:52.754Z,20.70
2022-10-17T20:00:56.942Z,20.60
2022-10-17T20:05:17.118Z,20.50
2022-10-17T20:09:01.269Z,20.60
2022-10-17T20:13:02.557Z,20.60
2022-10-17T20:17:03.755Z,20.40
2022-10-17T20:21:08.035Z,20.50
2022-10-17T20:25:09.235Z,20.50
2022-10-17T20:29:14.244Z,20.60
2022-10-17T20:33:15.440Z,20.60
2022-10-17T20:37:16.559Z,20.50
2022-10-17T20:41:17.879Z,20.30
2022-10-17T20:45:27.955Z,20.30
2022-10-17T20:49:22.096Z,20.30
2022-10-17T20:53:38.485Z,20.20
2022-10-17T20:57:26.207Z,20.20
2022-10-17T21:01:29.274Z,20.40
2022-10-17T21:05:30.516Z,20.40
2022-10-17T21:09:31.789Z,20.20
2022-10-17T21:13:32.947Z,20.20
2022-10-17T21:17:34.341Z,20.20
2022-10-17T21:21:39.246Z,20.10
2022-10-17T21:25:42.162Z,20.10
2022-10-17T21:29:43.791Z,20.20
2022-10-17T21:33:54.151Z,20.10
2022-10-17T21:37:55.360Z,20.00
2022-10-17T21:41:56.561Z,20.00
2022-10-17T21:46:03.821Z,19.90
2022-10-17T21:50:05.348Z,20.00
2022-10-17T21:54:06.689Z,19.90
2022-10-17T21:58:07.940Z,20.10
2022-10-17T22:02:09.128Z,20.20
2022-10-17T22:06:38.547Z,20.00
2022-10-17T22:10:15.201Z,20.00
2022-10-17T22:14:19.847Z,20.00
2022-10-17T22:18:21.146Z,20.00
2022-10-17T22:22:22.376Z,20.00
2022-10-17T22:26:26.854Z,20.00
2022-10-17T22:30:28.045Z,20.00
2022-10-17T22:34:29.229Z,20.10
2022-10-17T22:38:30.334Z,20.10
2022-10-17T22:42:33.739Z,20.10
2022-10-17T22:46:35.466Z,20.00
2022-10-17T22:50:40.827Z,20.00
2022-10-17T22:54:42.014Z,19.90
2022-10-17T22:58:43.497Z,20.00
2022-10-17T23:02:44.675Z,20.10
2022-10-17T23:06:45.751Z,20.00
2022-10-17T23:10:47.757Z,20.00
2022-10-17T23:14:49.053Z,20.00
2022-10-17T23:18:50.891Z,20.00
2022-10-17T23:22:53.011Z,19.70
2022-10-17T23:26:54.732Z,19.80
2022-10-17T23:30:55.914Z,19.90
2022-10-17T23:34:57.092Z,19.90
2022-10-17T23:38:58.698Z,19.90
2022-10-17T23:42:59.981Z,20.00
2022-10-17T23:47:01.077Z,19.90
2022-10-17T23:51:03.842Z,19.70
2022-10-17T23:55:06.246Z,19.70
2022-10-17T23:59:08.152Z,19.70
